AirNav   Everest Fuels
 
 1514 users online  

0AR8 Howard Memorial Hospital Heliport
Nashville, Arkansas, USA

GOING TO NASHVILLE?


FAA INFORMATION EFFECTIVE 22 APRIL 2021

Location

FAA Identifier: 0AR8
Lat/Long: 33-56-55.8300N 093-52-48.8100W
33-56.930500N 093-52.813500W
33.9488417,-93.8802250
(estimated)
Elevation: 549 ft. / 167 m (estimated)
Variation: 04E (1990)
Time zone: UTC -5 (UTC -6 during Standard Time)
Zip code: 71852

Heliport Operations

Heliport use: Private use, MEDICAL USE.
Activation date: 06/1993
Control tower: no
ARTCC: FORT WORTH CENTER
FSS: JONESBORO FLIGHT SERVICE STATION
Attendance: UNATNDD
Wind indicator: lighted
Segmented circle: no

Heliport Communications

  • FREQ FM 155.340.

Nearby radio navigation aids

VOR radial/distance  VOR name  Freq  Var
TXKr013/27.8TEXARKANA VORTAC116.3007E

 
NDB name  Hdg/Dist  Freq  Var  ID
HOPE317/18.036203EHPC .... .--. -.-.

Heliport Services

Runway Information

Helipad H1

Dimensions: 30 x 30 ft. / 9 x 9 m
Surface: concrete
Latitude: 33-56.930500N
Longitude: 093-52.813500W
Elevation: 549.0 ft.
Traffic pattern: leftleft

Heliport Ownership and Management from official FAA records

Ownership: Privately-owned
Owner: HOWARD MEMORIAL HOSPITAL
130 MEDICAL CIRCLE
NASHVILLE, AR 71852
Phone 870-845-4400
Manager: STEVEN MAY RN; ER DIRECTOR
130 MEDICAL CIRCLE
NASHVILLE, AR 71852
Phone 870-845-4400

Additional Remarks

FOR CD CTC FORT WORTH ARTCC AT 817-858-7584.

Instrument Procedures

There are no published instrument procedures at 0AR8.

Some nearby airports with instrument procedures:

M77 - Howard County Airport (4 nm NE)
M18 - Hope Municipal Airport (18 nm SE)
KDEQ - J Lynn Helms Sevier County Airport (26 nm W)
KTXK - Texarkana Regional Airport-Webb Field (30 nm S)
KMEZ - Mena Intermountain Municipal Airport (39 nm NW)
 
Loc | Ops | Rwys | IFR | FBO | Links
Com | Nav | Svcs | Stats | Notes
Area around 0AR8 (Howard Memorial Hospital Heliport)
 
Road maps at: MapQuest Bing Google
 
Aerial photo
No photo
 
Sectional chart

 
Airport distance calculator
Flying to Howard Memorial Hospital Heliport? Find the distance to fly.

From to 0AR8

Sunrise and sunset
Times for 14-May-2021
 Local
(UTC-5)
 Zulu
(UTC)
Morning civil twilight05:4810:48
Sunrise06:1611:16
Sunset20:0801:08
Evening civil twilight20:3501:35

Current date and time
Zulu (UTC)  14-May-2021 17:56:29
Local (UTC-5)  14-May-2021 12:56:29
 
METAR
KDEQ 
27nm W 
141653Z AUTO 12009G15KT 10SM CLR 22/08 A3027 RMK AO2 SLP248 T02220078
KTXK 
30nm S 
141653Z 08010KT 10SM CLR 22/07 A3030 RMK AO2 SLP258 T02220067 $
KMWT 
39nm N 
141653Z AUTO 10SM CLR 21/07 A3030 RMK AO2 SLP257 T02060067 $
KMEZ 
39nm NW 
141735Z AUTO 08006KT 10SM CLR 22/09 A3028 RMK AO2
KADF 
41nm E 
141656Z AUTO 00000KT 10SM CLR 21/06 A3033 RMK AO2 SLP268 T02110061
K4O4 
49nm W 
141735Z AUTO 13010KT 10SM CLR 22/10 A3027 RMK AO2
TAF
KTXK 
30nm S 
141125Z 1412/1512 08004KT P6SM SKC FM141500 11006KT P6SM FEW250 FM150000 13003KT P6SM FEW250
NOTAMs
Click for the latest NOTAMs
NOTAMs are issued by the DoD/FAA and will open in a separate window not controlled by AirNav.

 

 
 

Would you like to see your business listed on this page?

 If your business provides an interesting product or service to pilots, flight crews, aircraft, or users of the Howard Memorial Hospital Heliport, you should consider listing it here.  To start the listing process, click on the button below
 
Add a business
 

Other Pages about Howard Memorial Hospital Heliport

Update a link
 
Copyright © AirNav, LLC. All rights reserved. Privacy Policy  Contact